sensor_id;sensor_type;location;lat;lon;timestamp;P1;durP1;ratioP1;P2;durP2;ratioP2
5955;SDS011;3004;48.080;11.600;2022-07-17T00:02:23;100.70;;;8.03;;
5955;SDS011;3004;48.080;11.600;2022-07-17T00:04:51;100.37;;;7.47;;
5955;SDS011;3004;48.080;11.600;2022-07-17T00:07:18;100.60;;;7.27;;
5955;SDS011;3004;48.080;11.600;2022-07-17T00:09:45;100.60;;;7.30;;
5955;SDS011;3004;48.080;11.600;2022-07-17T00:12:13;100.57;;;7.50;;
5955;SDS011;3004;48.080;11.600;2022-07-17T00:14:40;100.77;;;7.10;;
5955;SDS011;3004;48.080;11.600;2022-07-17T00:17:07;101.40;;;7.90;;
5955;SDS011;3004;48.080;11.600;2022-07-17T00:19:34;100.77;;;7.60;;
5955;SDS011;3004;48.080;11.600;2022-07-17T00:22:02;101.20;;;7.53;;
5955;SDS011;3004;48.080;11.600;2022-07-17T00:24:29;100.63;;;7.17;;
5955;SDS011;3004;48.080;11.600;2022-07-17T00:26:56;100.57;;;7.00;;
5955;SDS011;3004;48.080;11.600;2022-07-17T00:29:23;100.97;;;7.23;;
5955;SDS011;3004;48.080;11.600;2022-07-17T00:31:50;101.30;;;7.20;;
5955;SDS011;3004;48.080;11.600;2022-07-17T00:34:17;101.30;;;7.43;;
5955;SDS011;3004;48.080;11.600;2022-07-17T00:36:44;100.97;;;7.40;;
5955;SDS011;3004;48.080;11.600;2022-07-17T00:39:12;101.30;;;7.50;;
5955;SDS011;3004;48.080;11.600;2022-07-17T00:41:39;100.97;;;7.23;;
5955;SDS011;3004;48.080;11.600;2022-07-17T00:44:07;101.97;;;7.80;;
5955;SDS011;3004;48.080;11.600;2022-07-17T00:46:37;101.40;;;7.43;;
5955;SDS011;3004;48.080;11.600;2022-07-17T00:49:05;101.30;;;7.30;;
5955;SDS011;3004;48.080;11.600;2022-07-17T00:51:32;101.00;;;7.40;;
5955;SDS011;3004;48.080;11.600;2022-07-17T00:53:59;101.37;;;7.80;;
5955;SDS011;3004;48.080;11.600;2022-07-17T00:56:29;101.17;;;7.80;;
5955;SDS011;3004;48.080;11.600;2022-07-17T00:58:57;101.63;;;7.30;;
5955;SDS011;3004;48.080;11.600;2022-07-17T01:01:26;101.70;;;7.30;;
5955;SDS011;3004;48.080;11.600;2022-07-17T01:03:52;102.10;;;7.90;;
5955;SDS011;3004;48.080;11.600;2022-07-17T01:06:19;101.57;;;7.60;;
5955;SDS011;3004;48.080;11.600;2022-07-17T01:08:46;101.37;;;7.70;;
5955;SDS011;3004;48.080;11.600;2022-07-17T01:11:13;101.87;;;7.93;;
5955;SDS011;3004;48.080;11.600;2022-07-17T01:13:41;102.63;;;8.23;;
5955;SDS011;3004;48.080;11.600;2022-07-17T01:16:09;102.50;;;8.40;;
5955;SDS011;3004;48.080;11.600;2022-07-17T01:18:36;102.87;;;8.47;;
5955;SDS011;3004;48.080;11.600;2022-07-17T01:21:05;102.10;;;7.73;;
5955;SDS011;3004;48.080;11.600;2022-07-17T01:23:33;102.07;;;7.70;;
5955;SDS011;3004;48.080;11.600;2022-07-17T01:26:00;101.97;;;7.50;;
5955;SDS011;3004;48.080;11.600;2022-07-17T01:28:27;102.20;;;7.50;;
5955;SDS011;3004;48.080;11.600;2022-07-17T01:30:55;102.10;;;7.37;;
5955;SDS011;3004;48.080;11.600;2022-07-17T01:33:22;102.37;;;7.60;;
5955;SDS011;3004;48.080;11.600;2022-07-17T01:35:49;102.27;;;7.23;;
5955;SDS011;3004;48.080;11.600;2022-07-17T01:38:17;102.30;;;7.33;;
5955;SDS011;3004;48.080;11.600;2022-07-17T01:40:44;102.37;;;7.17;;
5955;SDS011;3004;48.080;11.600;2022-07-17T01:43:11;102.87;;;8.00;;
5955;SDS011;3004;48.080;11.600;2022-07-17T01:45:38;102.60;;;7.43;;
5955;SDS011;3004;48.080;11.600;2022-07-17T01:48:05;101.60;;;6.97;;
5955;SDS011;3004;48.080;11.600;2022-07-17T01:50:32;102.93;;;7.27;;
5955;SDS011;3004;48.080;11.600;2022-07-17T01:52:59;102.47;;;7.40;;
5955;SDS011;3004;48.080;11.600;2022-07-17T01:55:27;103.50;;;7.77;;
5955;SDS011;3004;48.080;11.600;2022-07-17T01:57:56;103.00;;;7.50;;
5955;SDS011;3004;48.080;11.600;2022-07-17T02:00:23;103.20;;;7.23;;
5955;SDS011;3004;48.080;11.600;2022-07-17T02:02:51;103.53;;;7.37;;
5955;SDS011;3004;48.080;11.600;2022-07-17T02:05:18;113.80;;;8.90;;
5955;SDS011;3004;48.080;11.600;2022-07-17T02:07:45;103.10;;;7.10;;
5955;SDS011;3004;48.080;11.600;2022-07-17T02:10:12;103.40;;;7.20;;
5955;SDS011;3004;48.080;11.600;2022-07-17T02:12:41;103.30;;;7.23;;
5955;SDS011;3004;48.080;11.600;2022-07-17T02:15:08;103.57;;;7.30;;
5955;SDS011;3004;48.080;11.600;2022-07-17T02:17:36;103.33;;;7.00;;
5955;SDS011;3004;48.080;11.600;2022-07-17T02:20:03;103.17;;;7.27;;
5955;SDS011;3004;48.080;11.600;2022-07-17T02:22:32;103.57;;;7.10;;
5955;SDS011;3004;48.080;11.600;2022-07-17T02:24:59;104.40;;;8.47;;
5955;SDS011;3004;48.080;11.600;2022-07-17T02:27:25;104.37;;;8.33;;
5955;SDS011;3004;48.080;11.600;2022-07-17T02:29:54;104.33;;;8.13;;
5955;SDS011;3004;48.080;11.600;2022-07-17T02:32:21;104.30;;;7.90;;
5955;SDS011;3004;48.080;11.600;2022-07-17T02:34:48;105.17;;;8.00;;
5955;SDS011;3004;48.080;11.600;2022-07-17T02:37:14;103.87;;;7.60;;
5955;SDS011;3004;48.080;11.600;2022-07-17T02:39:41;103.97;;;7.43;;
5955;SDS011;3004;48.080;11.600;2022-07-17T02:42:18;105.17;;;7.50;;
5955;SDS011;3004;48.080;11.600;2022-07-17T02:44:46;103.87;;;7.07;;
5955;SDS011;3004;48.080;11.600;2022-07-17T02:47:20;103.67;;;6.83;;
5955;SDS011;3004;48.080;11.600;2022-07-17T02:49:48;103.17;;;7.10;;
5955;SDS011;3004;48.080;11.600;2022-07-17T02:52:15;103.50;;;7.20;;
5955;SDS011;3004;48.080;11.600;2022-07-17T02:54:42;103.90;;;7.50;;
5955;SDS011;3004;48.080;11.600;2022-07-17T02:57:09;104.40;;;8.10;;
5955;SDS011;3004;48.080;11.600;2022-07-17T02:59:36;103.77;;;7.40;;
5955;SDS011;3004;48.080;11.600;2022-07-17T03:02:03;105.30;;;8.23;;
5955;SDS011;3004;48.080;11.600;2022-07-17T03:04:32;104.47;;;7.20;;
5955;SDS011;3004;48.080;11.600;2022-07-17T03:06:59;104.07;;;6.90;;
5955;SDS011;3004;48.080;11.600;2022-07-17T03:09:26;104.13;;;7.10;;
5955;SDS011;3004;48.080;11.600;2022-07-17T03:11:53;104.50;;;7.20;;
5955;SDS011;3004;48.080;11.600;2022-07-17T03:14:20;103.77;;;7.10;;
5955;SDS011;3004;48.080;11.600;2022-07-17T03:16:47;104.60;;;7.20;;
5955;SDS011;3004;48.080;11.600;2022-07-17T03:19:13;104.30;;;7.20;;
5955;SDS011;3004;48.080;11.600;2022-07-17T03:21:42;104.57;;;7.40;;
5955;SDS011;3004;48.080;11.600;2022-07-17T03:24:09;104.60;;;7.43;;
5955;SDS011;3004;48.080;11.600;2022-07-17T03:26:36;104.57;;;7.40;;
5955;SDS011;3004;48.080;11.600;2022-07-17T03:29:02;104.63;;;7.07;;
5955;SDS011;3004;48.080;11.600;2022-07-17T03:31:29;104.33;;;7.30;;
5955;SDS011;3004;48.080;11.600;2022-07-17T03:33:56;105.17;;;7.27;;
5955;SDS011;3004;48.080;11.600;2022-07-17T03:36:23;105.10;;;7.40;;
5955;SDS011;3004;48.080;11.600;2022-07-17T03:38:52;105.10;;;7.10;;
5955;SDS011;3004;48.080;11.600;2022-07-17T03:41:19;106.73;;;7.23;;
5955;SDS011;3004;48.080;11.600;2022-07-17T03:43:45;105.27;;;7.50;;
5955;SDS011;3004;48.080;11.600;2022-07-17T03:46:12;105.87;;;7.37;;
5955;SDS011;3004;48.080;11.600;2022-07-17T03:48:39;105.57;;;7.20;;
5955;SDS011;3004;48.080;11.600;2022-07-17T03:51:06;105.23;;;6.93;;
5955;SDS011;3004;48.080;11.600;2022-07-17T03:53:33;107.27;;;7.60;;
5955;SDS011;3004;48.080;11.600;2022-07-17T03:56:01;106.40;;;7.87;;
5955;SDS011;3004;48.080;11.600;2022-07-17T03:58:30;105.77;;;7.30;;
5955;SDS011;3004;48.080;11.600;2022-07-17T04:00:56;106.47;;;7.20;;
5955;SDS011;3004;48.080;11.600;2022-07-17T04:03:23;105.37;;;6.80;;
5955;SDS011;3004;48.080;11.600;2022-07-17T04:05:51;105.83;;;7.10;;
5955;SDS011;3004;48.080;11.600;2022-07-17T04:08:17;105.57;;;6.97;;
5955;SDS011;3004;48.080;11.600;2022-07-17T04:10:44;105.67;;;6.93;;
5955;SDS011;3004;48.080;11.600;2022-07-17T04:13:13;106.27;;;7.60;;
5955;SDS011;3004;48.080;11.600;2022-07-17T04:15:40;106.17;;;7.50;;
5955;SDS011;3004;48.080;11.600;2022-07-17T04:18:18;106.20;;;6.87;;
5955;SDS011;3004;48.080;11.600;2022-07-17T04:20:46;105.87;;;7.00;;
5955;SDS011;3004;48.080;11.600;2022-07-17T04:23:13;105.90;;;7.00;;
5955;SDS011;3004;48.080;11.600;2022-07-17T04:25:40;106.37;;;7.20;;
5955;SDS011;3004;48.080;11.600;2022-07-17T04:28:07;106.57;;;7.17;;
5955;SDS011;3004;48.080;11.600;2022-07-17T04:30:36;106.57;;;7.27;;
5955;SDS011;3004;48.080;11.600;2022-07-17T04:33:03;107.10;;;7.70;;
5955;SDS011;3004;48.080;11.600;2022-07-17T04:35:30;106.47;;;7.60;;
5955;SDS011;3004;48.080;11.600;2022-07-17T04:37:57;106.50;;;7.20;;
5955;SDS011;3004;48.080;11.600;2022-07-17T04:40:24;106.17;;;7.40;;
5955;SDS011;3004;48.080;11.600;2022-07-17T04:42:52;106.50;;;7.00;;
5955;SDS011;3004;48.080;11.600;2022-07-17T04:45:19;106.47;;;7.30;;
5955;SDS011;3004;48.080;11.600;2022-07-17T04:47:48;107.57;;;8.17;;
5955;SDS011;3004;48.080;11.600;2022-07-17T04:50:15;106.60;;;7.20;;
5955;SDS011;3004;48.080;11.600;2022-07-17T04:52:42;106.07;;;7.00;;
5955;SDS011;3004;48.080;11.600;2022-07-17T04:55:09;106.97;;;7.37;;
5955;SDS011;3004;48.080;11.600;2022-07-17T04:57:36;106.93;;;7.00;;
5955;SDS011;3004;48.080;11.600;2022-07-17T05:00:03;106.57;;;7.03;;
5955;SDS011;3004;48.080;11.600;2022-07-17T05:02:31;106.50;;;6.93;;
5955;SDS011;3004;48.080;11.600;2022-07-17T05:05:00;106.70;;;6.97;;
5955;SDS011;3004;48.080;11.600;2022-07-17T05:07:27;106.63;;;7.30;;
5955;SDS011;3004;48.080;11.600;2022-07-17T05:09:54;107.10;;;7.60;;
5955;SDS011;3004;48.080;11.600;2022-07-17T05:12:21;107.30;;;7.70;;
5955;SDS011;3004;48.080;11.600;2022-07-17T05:14:48;106.27;;;7.00;;
5955;SDS011;3004;48.080;11.600;2022-07-17T05:17:15;106.80;;;7.10;;
5955;SDS011;3004;48.080;11.600;2022-07-17T05:19:42;106.97;;;7.27;;
5955;SDS011;3004;48.080;11.600;2022-07-17T05:22:10;106.77;;;7.37;;
5955;SDS011;3004;48.080;11.600;2022-07-17T05:24:38;107.23;;;7.77;;
5955;SDS011;3004;48.080;11.600;2022-07-17T05:27:05;107.13;;;7.47;;
5955;SDS011;3004;48.080;11.600;2022-07-17T05:29:32;107.03;;;7.20;;
5955;SDS011;3004;48.080;11.600;2022-07-17T05:31:59;106.97;;;7.40;;
5955;SDS011;3004;48.080;11.600;2022-07-17T05:34:26;106.87;;;7.33;;
5955;SDS011;3004;48.080;11.600;2022-07-17T05:36:53;106.47;;;7.20;;
5955;SDS011;3004;48.080;11.600;2022-07-17T05:39:21;107.10;;;7.80;;
5955;SDS011;3004;48.080;11.600;2022-07-17T05:41:48;106.83;;;7.60;;
5955;SDS011;3004;48.080;11.600;2022-07-17T05:44:15;107.07;;;7.40;;
5955;SDS011;3004;48.080;11.600;2022-07-17T05:46:42;107.33;;;7.30;;
5955;SDS011;3004;48.080;11.600;2022-07-17T05:49:09;108.00;;;8.33;;
5955;SDS011;3004;48.080;11.600;2022-07-17T05:51:35;106.87;;;7.47;;
5955;SDS011;3004;48.080;11.600;2022-07-17T05:54:02;106.77;;;7.53;;
5955;SDS011;3004;48.080;11.600;2022-07-17T05:56:31;106.87;;;7.30;;
5955;SDS011;3004;48.080;11.600;2022-07-17T05:58:58;106.50;;;7.30;;
5955;SDS011;3004;48.080;11.600;2022-07-17T06:01:25;106.20;;;7.10;;
5955;SDS011;3004;48.080;11.600;2022-07-17T06:03:52;105.90;;;7.80;;
5955;SDS011;3004;48.080;11.600;2022-07-17T06:06:18;105.50;;;7.73;;
5955;SDS011;3004;48.080;11.600;2022-07-17T06:08:46;105.37;;;7.90;;
5955;SDS011;3004;48.080;11.600;2022-07-17T06:11:13;105.73;;;8.00;;
5955;SDS011;3004;48.080;11.600;2022-07-17T06:13:43;105.97;;;8.50;;
5955;SDS011;3004;48.080;11.600;2022-07-17T06:16:10;103.87;;;8.10;;
5955;SDS011;3004;48.080;11.600;2022-07-17T06:18:40;102.80;;;8.10;;
5955;SDS011;3004;48.080;11.600;2022-07-17T06:21:07;102.07;;;7.50;;
5955;SDS011;3004;48.080;11.600;2022-07-17T06:23:34;101.87;;;7.63;;
5955;SDS011;3004;48.080;11.600;2022-07-17T06:26:00;101.73;;;7.90;;
5955;SDS011;3004;48.080;11.600;2022-07-17T06:28:27;101.50;;;8.17;;
5955;SDS011;3004;48.080;11.600;2022-07-17T06:30:56;101.47;;;8.60;;
5955;SDS011;3004;48.080;11.600;2022-07-17T06:33:23;101.57;;;8.50;;
5955;SDS011;3004;48.080;11.600;2022-07-17T06:35:50;100.63;;;7.70;;
5955;SDS011;3004;48.080;11.600;2022-07-17T06:38:17;100.20;;;7.60;;
5955;SDS011;3004;48.080;11.600;2022-07-17T06:40:43;100.43;;;8.40;;
5955;SDS011;3004;48.080;11.600;2022-07-17T06:43:10;100.17;;;7.63;;
5955;SDS011;3004;48.080;11.600;2022-07-17T06:45:41;100.53;;;8.10;;
5955;SDS011;3004;48.080;11.600;2022-07-17T06:48:09;100.40;;;7.87;;
5955;SDS011;3004;48.080;11.600;2022-07-17T06:50:36;100.00;;;7.40;;
5955;SDS011;3004;48.080;11.600;2022-07-17T06:53:03;100.50;;;7.87;;
5955;SDS011;3004;48.080;11.600;2022-07-17T06:55:30;100.00;;;7.43;;
5955;SDS011;3004;48.080;11.600;2022-07-17T06:57:57;101.30;;;7.77;;
5955;SDS011;3004;48.080;11.600;2022-07-17T07:00:24;99.90;;;7.30;;
5955;SDS011;3004;48.080;11.600;2022-07-17T07:02:51;100.27;;;8.00;;
5955;SDS011;3004;48.080;11.600;2022-07-17T07:05:19;99.97;;;7.40;;
5955;SDS011;3004;48.080;11.600;2022-07-17T07:07:46;100.37;;;7.53;;
5955;SDS011;3004;48.080;11.600;2022-07-17T07:10:13;100.73;;;7.27;;
5955;SDS011;3004;48.080;11.600;2022-07-17T07:12:40;100.10;;;7.23;;
5955;SDS011;3004;48.080;11.600;2022-07-17T07:15:08;100.10;;;7.53;;
5955;SDS011;3004;48.080;11.600;2022-07-17T07:17:37;99.47;;;6.97;;
5955;SDS011;3004;48.080;11.600;2022-07-17T07:20:04;99.73;;;7.03;;
5955;SDS011;3004;48.080;11.600;2022-07-17T07:22:33;99.93;;;7.60;;
5955;SDS011;3004;48.080;11.600;2022-07-17T07:25:01;100.27;;;7.27;;
5955;SDS011;3004;48.080;11.600;2022-07-17T07:27:28;99.87;;;7.53;;
5955;SDS011;3004;48.080;11.600;2022-07-17T07:29:56;100.37;;;7.80;;
5955;SDS011;3004;48.080;11.600;2022-07-17T07:32:22;99.77;;;6.97;;
5955;SDS011;3004;48.080;11.600;2022-07-17T07:34:49;99.53;;;7.20;;
5955;SDS011;3004;48.080;11.600;2022-07-17T07:37:16;100.73;;;8.53;;
5955;SDS011;3004;48.080;11.600;2022-07-17T07:39:45;99.90;;;7.43;;
5955;SDS011;3004;48.080;11.600;2022-07-17T07:42:12;100.50;;;7.73;;
5955;SDS011;3004;48.080;11.600;2022-07-17T07:44:39;100.43;;;8.00;;
5955;SDS011;3004;48.080;11.600;2022-07-17T07:47:06;100.77;;;8.40;;
5955;SDS011;3004;48.080;11.600;2022-07-17T07:49:33;100.70;;;8.23;;
5955;SDS011;3004;48.080;11.600;2022-07-17T07:52:02;100.00;;;7.30;;
5955;SDS011;3004;48.080;11.600;2022-07-17T07:54:32;99.87;;;7.10;;
5955;SDS011;3004;48.080;11.600;2022-07-17T07:57:00;100.37;;;7.77;;
5955;SDS011;3004;48.080;11.600;2022-07-17T07:59:28;99.97;;;7.07;;
5955;SDS011;3004;48.080;11.600;2022-07-17T08:01:57;99.90;;;7.67;;
5955;SDS011;3004;48.080;11.600;2022-07-17T08:04:24;100.50;;;7.43;;
5955;SDS011;3004;48.080;11.600;2022-07-17T08:06:52;99.90;;;7.50;;
5955;SDS011;3004;48.080;11.600;2022-07-17T08:09:19;99.67;;;7.20;;
5955;SDS011;3004;48.080;11.600;2022-07-17T08:11:46;99.60;;;7.30;;
5955;SDS011;3004;48.080;11.600;2022-07-17T08:14:14;100.00;;;7.47;;
5955;SDS011;3004;48.080;11.600;2022-07-17T08:16:42;100.30;;;8.00;;
5955;SDS011;3004;48.080;11.600;2022-07-17T08:19:09;100.30;;;8.00;;
5955;SDS011;3004;48.080;11.600;2022-07-17T08:21:36;100.43;;;7.70;;
5955;SDS011;3004;48.080;11.600;2022-07-17T08:24:03;100.40;;;7.67;;
5955;SDS011;3004;48.080;11.600;2022-07-17T08:26:30;99.87;;;7.67;;
5955;SDS011;3004;48.080;11.600;2022-07-17T08:28:58;100.10;;;7.43;;
5955;SDS011;3004;48.080;11.600;2022-07-17T08:31:26;100.70;;;7.80;;
5955;SDS011;3004;48.080;11.600;2022-07-17T08:33:53;100.57;;;9.00;;
5955;SDS011;3004;48.080;11.600;2022-07-17T08:36:20;100.57;;;8.17;;
5955;SDS011;3004;48.080;11.600;2022-07-17T08:38:47;100.07;;;7.60;;
5955;SDS011;3004;48.080;11.600;2022-07-17T08:41:15;101.03;;;7.67;;
5955;SDS011;3004;48.080;11.600;2022-07-17T08:43:43;100.03;;;7.50;;
5955;SDS011;3004;48.080;11.600;2022-07-17T08:46:14;99.70;;;6.90;;
5955;SDS011;3004;48.080;11.600;2022-07-17T08:48:44;99.90;;;7.77;;
5955;SDS011;3004;48.080;11.600;2022-07-17T08:51:14;100.40;;;8.23;;
5955;SDS011;3004;48.080;11.600;2022-07-17T08:53:42;100.20;;;7.30;;
5955;SDS011;3004;48.080;11.600;2022-07-17T08:56:10;100.47;;;8.37;;
5955;SDS011;3004;48.080;11.600;2022-07-17T08:58:37;99.93;;;7.43;;
5955;SDS011;3004;48.080;11.600;2022-07-17T09:01:04;100.90;;;8.60;;
5955;SDS011;3004;48.080;11.600;2022-07-17T09:03:32;101.57;;;10.17;;
5955;SDS011;3004;48.080;11.600;2022-07-17T09:06:00;102.00;;;9.93;;
5955;SDS011;3004;48.080;11.600;2022-07-17T09:08:27;102.03;;;9.60;;
5955;SDS011;3004;48.080;11.600;2022-07-17T09:10:57;101.97;;;11.43;;
5955;SDS011;3004;48.080;11.600;2022-07-17T09:13:25;103.17;;;13.27;;
5955;SDS011;3004;48.080;11.600;2022-07-17T09:15:56;101.77;;;11.13;;
5955;SDS011;3004;48.080;11.600;2022-07-17T09:18:24;101.50;;;10.53;;
5955;SDS011;3004;48.080;11.600;2022-07-17T09:20:52;101.57;;;10.33;;
5955;SDS011;3004;48.080;11.600;2022-07-17T09:23:23;100.17;;;7.80;;
5955;SDS011;3004;48.080;11.600;2022-07-17T09:25:51;100.90;;;9.53;;
5955;SDS011;3004;48.080;11.600;2022-07-17T09:28:20;100.07;;;7.80;;
5955;SDS011;3004;48.080;11.600;2022-07-17T09:30:49;101.37;;;9.60;;
5955;SDS011;3004;48.080;11.600;2022-07-17T09:33:17;101.77;;;10.77;;
5955;SDS011;3004;48.080;11.600;2022-07-17T09:35:49;100.30;;;7.93;;
5955;SDS011;3004;48.080;11.600;2022-07-17T09:38:27;99.80;;;7.70;;
5955;SDS011;3004;48.080;11.600;2022-07-17T09:41:05;101.20;;;9.80;;
5955;SDS011;3004;48.080;11.600;2022-07-17T09:43:37;100.00;;;7.87;;
5955;SDS011;3004;48.080;11.600;2022-07-17T09:46:08;100.13;;;7.77;;
5955;SDS011;3004;48.080;11.600;2022-07-17T09:48:39;100.90;;;8.90;;
5955;SDS011;3004;48.080;11.600;2022-07-17T09:51:12;100.97;;;9.27;;
5955;SDS011;3004;48.080;11.600;2022-07-17T09:53:46;102.10;;;11.47;;
5955;SDS011;3004;48.080;11.600;2022-07-17T09:56:14;100.87;;;9.50;;
5955;SDS011;3004;48.080;11.600;2022-07-17T09:58:43;99.77;;;7.80;;
5955;SDS011;3004;48.080;11.600;2022-07-17T10:01:13;100.00;;;7.37;;
5955;SDS011;3004;48.080;11.600;2022-07-17T10:03:42;99.77;;;8.00;;
5955;SDS011;3004;48.080;11.600;2022-07-17T10:06:10;101.40;;;10.03;;
5955;SDS011;3004;48.080;11.600;2022-07-17T10:08:39;100.50;;;9.00;;
5955;SDS011;3004;48.080;11.600;2022-07-17T10:11:08;102.70;;;12.50;;
5955;SDS011;3004;48.080;11.600;2022-07-17T10:13:38;103.90;;;14.60;;
5955;SDS011;3004;48.080;11.600;2022-07-17T10:16:06;103.90;;;15.57;;
5955;SDS011;3004;48.080;11.600;2022-07-17T10:18:34;103.37;;;13.97;;
5955;SDS011;3004;48.080;11.600;2022-07-17T10:21:06;101.77;;;11.13;;
5955;SDS011;3004;48.080;11.600;2022-07-17T10:23:40;100.47;;;9.33;;
5955;SDS011;3004;48.080;11.600;2022-07-17T10:26:10;101.93;;;11.40;;
5955;SDS011;3004;48.080;11.600;2022-07-17T10:28:43;102.40;;;13.03;;
5955;SDS011;3004;48.080;11.600;2022-07-17T10:31:22;101.77;;;10.67;;
5955;SDS011;3004;48.080;11.600;2022-07-17T10:33:56;100.83;;;9.20;;
5955;SDS011;3004;48.080;11.600;2022-07-17T10:36:36;100.73;;;9.13;;
5955;SDS011;3004;48.080;11.600;2022-07-17T10:39:11;99.77;;;7.80;;
5955;SDS011;3004;48.080;11.600;2022-07-17T10:41:42;99.73;;;7.50;;
5955;SDS011;3004;48.080;11.600;2022-07-17T10:44:23;100.10;;;8.17;;
5955;SDS011;3004;48.080;11.600;2022-07-17T10:46:59;100.20;;;7.77;;
5955;SDS011;3004;48.080;11.600;2022-07-17T10:49:26;100.77;;;9.80;;
5955;SDS011;3004;48.080;11.600;2022-07-17T10:51:55;100.20;;;7.83;;
5955;SDS011;3004;48.080;11.600;2022-07-17T10:54:31;104.30;;;9.23;;
5955;SDS011;3004;48.080;11.600;2022-07-17T10:57:01;100.67;;;8.87;;
5955;SDS011;3004;48.080;11.600;2022-07-17T10:59:29;102.87;;;13.37;;
5955;SDS011;3004;48.080;11.600;2022-07-17T11:01:56;100.93;;;9.10;;
5955;SDS011;3004;48.080;11.600;2022-07-17T11:04:24;102.20;;;10.93;;
5955;SDS011;3004;48.080;11.600;2022-07-17T11:07:07;100.73;;;9.20;;
5955;SDS011;3004;48.080;11.600;2022-07-17T11:09:35;100.90;;;9.30;;
5955;SDS011;3004;48.080;11.600;2022-07-17T11:12:15;100.80;;;8.73;;
5955;SDS011;3004;48.080;11.600;2022-07-17T11:14:42;100.90;;;9.20;;
5955;SDS011;3004;48.080;11.600;2022-07-17T11:17:11;100.93;;;8.83;;
5955;SDS011;3004;48.080;11.600;2022-07-17T11:19:39;101.67;;;10.53;;
5955;SDS011;3004;48.080;11.600;2022-07-17T11:22:07;100.60;;;8.50;;
5955;SDS011;3004;48.080;11.600;2022-07-17T11:24:36;100.57;;;8.27;;
5955;SDS011;3004;48.080;11.600;2022-07-17T11:27:03;100.07;;;7.37;;
5955;SDS011;3004;48.080;11.600;2022-07-17T11:29:36;99.47;;;7.10;;
5955;SDS011;3004;48.080;11.600;2022-07-17T11:32:04;99.87;;;7.17;;
5955;SDS011;3004;48.080;11.600;2022-07-17T11:34:31;100.30;;;8.40;;
5955;SDS011;3004;48.080;11.600;2022-07-17T11:36:59;100.30;;;8.30;;
5955;SDS011;3004;48.080;11.600;2022-07-17T11:39:26;100.87;;;8.80;;
5955;SDS011;3004;48.080;11.600;2022-07-17T11:42:04;99.90;;;7.80;;
5955;SDS011;3004;48.080;11.600;2022-07-17T11:44:34;101.73;;;9.80;;
5955;SDS011;3004;48.080;11.600;2022-07-17T11:47:03;101.43;;;9.90;;
5955;SDS011;3004;48.080;11.600;2022-07-17T11:49:30;101.20;;;10.20;;
5955;SDS011;3004;48.080;11.600;2022-07-17T11:52:07;103.83;;;14.97;;
5955;SDS011;3004;48.080;11.600;2022-07-17T11:54:45;104.77;;;16.53;;
5955;SDS011;3004;48.080;11.600;2022-07-17T11:57:13;102.77;;;13.17;;
5955;SDS011;3004;48.080;11.600;2022-07-17T11:59:40;102.47;;;12.53;;
5955;SDS011;3004;48.080;11.600;2022-07-17T12:02:09;103.70;;;15.47;;
5955;SDS011;3004;48.080;11.600;2022-07-17T12:04:47;100.67;;;9.10;;
5955;SDS011;3004;48.080;11.600;2022-07-17T12:07:15;101.00;;;9.07;;
5955;SDS011;3004;48.080;11.600;2022-07-17T12:09:43;101.37;;;9.27;;
5955;SDS011;3004;48.080;11.600;2022-07-17T12:12:17;100.93;;;9.20;;
5955;SDS011;3004;48.080;11.600;2022-07-17T12:14:46;102.57;;;11.30;;
5955;SDS011;3004;48.080;11.600;2022-07-17T12:17:17;102.07;;;10.73;;
5955;SDS011;3004;48.080;11.600;2022-07-17T12:19:45;101.90;;;10.17;;
5955;SDS011;3004;48.080;11.600;2022-07-17T12:22:12;101.47;;;10.50;;
5955;SDS011;3004;48.080;11.600;2022-07-17T12:24:42;101.23;;;8.77;;
5955;SDS011;3004;48.080;11.600;2022-07-17T12:27:22;100.00;;;7.23;;
5955;SDS011;3004;48.080;11.600;2022-07-17T12:29:51;100.43;;;9.07;;
5955;SDS011;3004;48.080;11.600;2022-07-17T12:32:22;103.70;;;10.60;;
5955;SDS011;3004;48.080;11.600;2022-07-17T12:34:49;103.27;;;13.50;;
5955;SDS011;3004;48.080;11.600;2022-07-17T12:37:17;100.67;;;9.30;;
5955;SDS011;3004;48.080;11.600;2022-07-17T12:39:46;100.80;;;8.07;;
5955;SDS011;3004;48.080;11.600;2022-07-17T12:42:16;100.60;;;8.60;;
5955;SDS011;3004;48.080;11.600;2022-07-17T12:44:51;101.40;;;9.40;;
5955;SDS011;3004;48.080;11.600;2022-07-17T12:47:18;100.30;;;8.23;;
5955;SDS011;3004;48.080;11.600;2022-07-17T12:49:46;100.93;;;9.40;;
5955;SDS011;3004;48.080;11.600;2022-07-17T12:52:13;101.37;;;10.23;;
5955;SDS011;3004;48.080;11.600;2022-07-17T12:54:40;102.80;;;12.50;;
5955;SDS011;3004;48.080;11.600;2022-07-17T12:57:07;103.30;;;13.43;;
5955;SDS011;3004;48.080;11.600;2022-07-17T12:59:34;102.20;;;12.30;;
5955;SDS011;3004;48.080;11.600;2022-07-17T13:02:01;101.23;;;9.50;;
5955;SDS011;3004;48.080;11.600;2022-07-17T13:04:31;101.03;;;8.50;;
5955;SDS011;3004;48.080;11.600;2022-07-17T13:07:04;100.70;;;8.60;;
5955;SDS011;3004;48.080;11.600;2022-07-17T13:09:31;100.50;;;8.43;;
5955;SDS011;3004;48.080;11.600;2022-07-17T13:12:01;101.87;;;11.27;;
5955;SDS011;3004;48.080;11.600;2022-07-17T13:14:29;102.50;;;11.80;;
5955;SDS011;3004;48.080;11.600;2022-07-17T13:16:57;101.57;;;10.37;;
5955;SDS011;3004;48.080;11.600;2022-07-17T13:19:25;100.80;;;9.30;;
5955;SDS011;3004;48.080;11.600;2022-07-17T13:21:52;100.67;;;9.37;;
5955;SDS011;3004;48.080;11.600;2022-07-17T13:24:21;102.30;;;12.20;;
5955;SDS011;3004;48.080;11.600;2022-07-17T13:26:47;105.70;;;18.47;;
5955;SDS011;3004;48.080;11.600;2022-07-17T13:29:15;106.40;;;20.80;;
5955;SDS011;3004;48.080;11.600;2022-07-17T13:31:42;110.40;;;28.13;;
5955;SDS011;3004;48.080;11.600;2022-07-17T13:34:09;104.83;;;17.33;;
5955;SDS011;3004;48.080;11.600;2022-07-17T13:36:35;103.00;;;12.53;;
5955;SDS011;3004;48.080;11.600;2022-07-17T13:39:03;99.67;;;7.17;;
5955;SDS011;3004;48.080;11.600;2022-07-17T13:41:31;100.10;;;7.83;;
5955;SDS011;3004;48.080;11.600;2022-07-17T13:43:59;99.90;;;7.20;;
5955;SDS011;3004;48.080;11.600;2022-07-17T13:46:27;101.23;;;7.37;;
5955;SDS011;3004;48.080;11.600;2022-07-17T13:48:54;99.87;;;7.50;;
5955;SDS011;3004;48.080;11.600;2022-07-17T13:51:26;100.23;;;7.70;;
5955;SDS011;3004;48.080;11.600;2022-07-17T13:53:54;101.47;;;9.83;;
5955;SDS011;3004;48.080;11.600;2022-07-17T13:56:22;101.20;;;9.90;;
5955;SDS011;3004;48.080;11.600;2022-07-17T13:58:51;100.40;;;8.93;;
5955;SDS011;3004;48.080;11.600;2022-07-17T14:01:18;100.83;;;10.27;;
5955;SDS011;3004;48.080;11.600;2022-07-17T14:03:46;100.90;;;10.27;;
5955;SDS011;3004;48.080;11.600;2022-07-17T14:06:13;100.50;;;8.90;;
5955;SDS011;3004;48.080;11.600;2022-07-17T14:08:40;100.10;;;8.00;;
5955;SDS011;3004;48.080;11.600;2022-07-17T14:11:11;99.93;;;7.27;;
5955;SDS011;3004;48.080;11.600;2022-07-17T14:13:39;100.47;;;8.87;;
5955;SDS011;3004;48.080;11.600;2022-07-17T14:16:10;101.53;;;10.63;;
5955;SDS011;3004;48.080;11.600;2022-07-17T14:18:37;100.77;;;9.40;;
5955;SDS011;3004;48.080;11.600;2022-07-17T14:21:23;100.40;;;8.10;;
5955;SDS011;3004;48.080;11.600;2022-07-17T14:23:50;101.10;;;9.17;;
5955;SDS011;3004;48.080;11.600;2022-07-17T14:26:17;101.07;;;10.23;;
5955;SDS011;3004;48.080;11.600;2022-07-17T14:28:44;100.63;;;9.30;;
5955;SDS011;3004;48.080;11.600;2022-07-17T14:31:12;101.10;;;9.87;;
5955;SDS011;3004;48.080;11.600;2022-07-17T14:33:39;101.47;;;10.93;;
5955;SDS011;3004;48.080;11.600;2022-07-17T14:36:06;101.40;;;10.90;;
5955;SDS011;3004;48.080;11.600;2022-07-17T14:38:33;101.87;;;11.70;;
5955;SDS011;3004;48.080;11.600;2022-07-17T14:41:00;100.80;;;9.47;;